This demonstration page uses our WeatherBlox Daily Observations layout. Learn more.

36.17497, -115.13722

Hourly Observations for June 22, 2018

Temp ( °F °C ) Dew Point ( °F °C ) Humidity (%) Winds ( mph kmh ) Pressure ( in mb ) Visibility ( mi km ) Precip ( " mm )
12:53 am 00:53 Clear 96 35.6 -9 -22.8 2 2 WSW 12 19 29.68 1005 10 16.09344 0 0
1:53 am 01:53 Clear 94 34.4 3 -16.1 3 3 WSW 12 19 29.68 1005 10 16.09344 0 0
2:53 am 02:53 Clear 87 30.6 9 -12.8 5 5 NE 8 13 29.71 1006 10 16.09344 0 0
3:53 am 03:53 Clear 89 31.7 6 -14.4 4 4 N 13 20 29.74 1007 10 16.09344 0 0
4:53 am 04:53 Clear 87 30.6 8 -13.3 5 5 N 12 19 29.74 1007 10 16.09344 0 0
5:53 am 05:53 Sunny 86 30 9 -12.8 5 5 NNW 14 22 29.77 1008 10 16.09344 0 0
6:53 am 06:53 Sunny 88 31.1 11 -11.7 5 5 N 14 22 29.77 1008 10 16.09344 0 0
7:53 am 07:53 Sunny 93 33.9 11 -11.7 5 5 N 13 20 29.8 1009 10 16.09344 0 0
8:53 am 08:53 Sunny 97 36.1 11 -11.7 4 4 N 10 17 29.8 1009 10 16.09344 0 0
9:53 am 09:53 Sunny 99 37.2 9 -12.8 3 3 NNW 12 19 29.8 1009 10 16.09344 0 0
10:53 am 10:53 Sunny 100 37.8 9 -12.8 3 3 E 5 7 29.8 1009 10 16.09344 0 0
11:53 am 11:53 Sunny 102 38.9 10 -12.2 3 3 ENE 9 15 29.8 1009 10 16.09344 0 0
12:53 pm 12:53 Sunny 104 40 14 -10 4 4 SE 10 17 29.77 1008 10 16.09344 0 0
1:53 pm 13:53 Sunny 104 40 10 -12.2 3 3 SSE 6 9 29.74 1007 10 16.09344 0 0
2:53 pm 14:53 Sunny 107 41.7 8 -13.3 3 3 E 9 15 29.71 1006 10 16.09344 0 0
3:53 pm 15:53 Sunny 106 41.1 5 -15 2 2 S 6 9 29.68 1005 10 16.09344 0 0
4:53 pm 16:53 Sunny 106 41.1 10 -12.2 3 3 SSE 7 11 29.65 1004 10 16.09344 0 0
5:53 pm 17:53 Sunny 106 41.1 10 -12.2 3 3 SSE 10 17 29.65 1004 10 16.09344 0 0
6:53 pm 18:53 Sunny 106 41.1 8 -13.3 3 3 SW 7 11 29.62 1003 10 16.09344 0 0
7:53 pm 19:53 Sunny 104 40 11 -11.7 3 3 S 5 7 29.62 1003 10 16.09344 0 0
8:53 pm 20:53 Clear 102 38.9 9 -12.8 3 3 WSW 6 9 29.62 1003 10 16.09344 0 0
9:53 pm 21:53 Clear 97 36.1 11 -11.7 4 4 NNE 5 7 29.65 1004 10 16.09344 0 0
10:53 pm 22:53 Clear 93 33.9 13 -10.6 5 5 W 5 7 29.65 1004 10 16.09344 0 0
11:53 pm 23:53 Clear 90 32.2 19 -7.2 7 7 N 5 7 29.65 1004 10 16.09344 0 0

Powered by AerisWeather